createdAt,value
2023-04-13T00:00:24.958Z,95205.75
2023-04-13T00:03:22.114Z,95219.41
2023-04-13T00:06:20.200Z,95220.53
2023-04-13T00:09:18.688Z,95214.75
2023-04-13T00:12:15.996Z,95230.94
2023-04-13T00:15:13.385Z,95235.03
2023-04-13T00:18:11.228Z,95243.59
2023-04-13T00:21:08.408Z,95249.88
2023-04-13T00:24:05.654Z,95239.84
2023-04-13T00:27:02.832Z,95242.41
2023-04-13T00:29:59.749Z,95245.75
2023-04-13T00:32:56.668Z,95230.25
2023-04-13T00:35:53.498Z,95241.63
2023-04-13T00:38:50.332Z,95225.22
2023-04-13T00:41:47.135Z,95240.63
2023-04-13T00:44:44.194Z,95234.75
2023-04-13T00:47:43.404Z,95236.00
2023-04-13T00:50:42.492Z,95232.59
2023-04-13T00:53:40.301Z,95225.63
2023-04-13T00:56:37.606Z,95220.72
2023-04-13T00:59:34.926Z,95234.44
2023-04-13T01:02:32.591Z,95235.44
2023-04-13T01:05:41.603Z,95242.69
2023-04-13T01:08:56.888Z,95231.91
2023-04-13T01:12:17.649Z,95242.50
2023-04-13T01:15:16.552Z,95254.47
2023-04-13T01:18:15.674Z,95260.38
2023-04-13T01:21:14.731Z,95266.19
2023-04-13T01:24:53.500Z,95273.03
2023-04-13T01:27:55.827Z,95261.84
2023-04-13T01:30:53.954Z,95260.06
2023-04-13T01:33:52.477Z,95268.00
2023-04-13T01:36:50.149Z,95265.97
2023-04-13T01:39:49.308Z,95269.69
2023-04-13T01:42:46.436Z,95262.44
2023-04-13T01:46:01.226Z,95258.00
2023-04-13T01:49:01.664Z,95270.06
2023-04-13T01:51:59.313Z,95270.06
2023-04-13T01:54:57.848Z,95269.09
2023-04-13T01:57:57.622Z,95260.78
2023-04-13T02:00:58.145Z,95266.56
2023-04-13T02:03:55.298Z,95262.81
2023-04-13T02:06:52.237Z,95269.97
2023-04-13T02:09:50.272Z,95273.72
2023-04-13T02:12:47.835Z,95261.47
2023-04-13T02:15:44.914Z,95271.38
2023-04-13T02:18:41.819Z,95284.31
2023-04-13T02:21:38.702Z,95279.88
2023-04-13T02:24:35.501Z,95292.53
2023-04-13T02:27:34.726Z,95301.75
2023-04-13T02:30:31.546Z,95293.72
2023-04-13T02:33:31.821Z,95295.19
2023-04-13T02:36:28.664Z,95294.41
2023-04-13T02:39:25.711Z,95297.66
2023-04-13T02:42:23.473Z,95294.78
2023-04-13T02:45:20.453Z,95293.50
2023-04-13T02:48:17.307Z,95282.25
2023-04-13T02:51:14.224Z,95277.25
2023-04-13T02:54:11.685Z,95267.72
2023-04-13T02:57:10.577Z,95265.28
2023-04-13T03:00:13.219Z,95270.66
2023-04-13T03:03:10.055Z,95267.63
2023-04-13T03:06:07.664Z,95259.88
2023-04-13T03:09:05.053Z,95255.25
2023-04-13T03:12:02.769Z,95253.41
2023-04-13T03:15:04.932Z,95254.38
2023-04-13T03:18:04.175Z,95238.88
2023-04-13T03:21:02.464Z,95242.31
2023-04-13T03:23:59.544Z,95242.41
2023-04-13T03:26:57.939Z,95237.47
2023-04-13T03:29:54.778Z,95240.03
2023-04-13T03:32:52.457Z,95244.84
2023-04-13T03:35:49.353Z,95244.94
2023-04-13T03:38:46.347Z,95252.94
2023-04-13T03:41:43.206Z,95255.97
2023-04-13T03:44:40.011Z,95257.34
2023-04-13T03:47:38.855Z,95270.16
2023-04-13T03:50:35.828Z,95273.28
2023-04-13T03:53:36.515Z,95261.44
2023-04-13T03:56:33.260Z,95262.97
2023-04-13T03:59:30.154Z,95264.47
2023-04-13T04:02:27.432Z,95268.13
2023-04-13T04:05:24.816Z,95270.53
2023-04-13T04:08:22.139Z,95272.91
2023-04-13T04:11:18.967Z,95271.81
2023-04-13T04:14:15.754Z,95266.69
2023-04-13T04:17:12.556Z,95263.22
2023-04-13T04:20:10.576Z,95274.13
2023-04-13T04:23:09.868Z,95275.31
2023-04-13T04:26:07.476Z,95268.69
2023-04-13T04:29:04.343Z,95271.72
2023-04-13T04:32:05.604Z,95288.66
2023-04-13T04:35:04.890Z,95292.47
2023-04-13T04:38:04.447Z,95299.88
2023-04-13T04:41:02.021Z,95290.59
2023-04-13T04:44:02.757Z,95302.72
2023-04-13T04:47:00.288Z,95305.25
2023-04-13T04:49:57.976Z,95317.88
2023-04-13T04:52:54.793Z,95300.44
2023-04-13T04:55:52.153Z,95305.25
2023-04-13T04:58:49.191Z,95308.31
2023-04-13T05:01:46.819Z,95317.41
2023-04-13T05:04:44.091Z,95307.13
2023-04-13T05:07:41.095Z,95310.94
2023-04-13T05:10:46.577Z,95317.09
2023-04-13T05:13:43.460Z,95311.13
2023-04-13T05:16:41.015Z,95315.41
2023-04-13T05:19:39.194Z,95315.72
2023-04-13T05:22:37.152Z,95312.81
2023-04-13T05:25:34.041Z,95310.00
2023-04-13T05:28:30.835Z,95311.97
2023-04-13T05:31:28.653Z,95307.84
2023-04-13T05:34:25.568Z,95309.03
2023-04-13T05:37:22.423Z,95307.34
2023-04-13T05:40:19.233Z,95308.53
2023-04-13T05:43:34.701Z,95314.03
2023-04-13T05:46:31.550Z,95323.28
2023-04-13T05:49:28.911Z,95323.00
2023-04-13T05:52:25.740Z,95315.63
2023-04-13T05:55:23.578Z,95313.16
2023-04-13T05:58:20.476Z,95306.81
2023-04-13T06:01:19.653Z,95317.69
2023-04-13T06:04:18.195Z,95324.88
2023-04-13T06:07:16.398Z,95334.59
2023-04-13T06:10:16.804Z,95328.81
2023-04-13T06:13:13.920Z,95340.88
2023-04-13T06:16:10.901Z,95341.16
2023-04-13T06:19:07.750Z,95353.25
2023-04-13T06:22:04.563Z,95341.97
2023-04-13T06:25:02.023Z,95344.41
2023-04-13T06:28:01.767Z,95341.75
2023-04-13T06:30:58.627Z,95338.53
2023-04-13T06:33:55.535Z,95331.34
2023-04-13T06:36:52.792Z,95338.41
2023-04-13T06:39:49.666Z,95340.59
2023-04-13T06:42:46.567Z,95337.72
2023-04-13T06:45:43.406Z,95337.03
2023-04-13T06:48:40.531Z,95335.78
2023-04-13T06:51:37.841Z,95338.50
2023-04-13T06:54:35.577Z,95349.31
2023-04-13T06:57:32.847Z,95344.69
2023-04-13T07:00:30.667Z,95348.63
2023-04-13T07:03:28.312Z,95351.56
2023-04-13T07:06:26.327Z,95358.34
2023-04-13T07:09:23.845Z,95362.97
2023-04-13T07:12:23.631Z,95363.63
2023-04-13T07:15:20.607Z,95369.94
2023-04-13T07:18:17.634Z,95368.06
2023-04-13T07:21:14.522Z,95374.47
2023-04-13T07:24:11.875Z,95376.50
2023-04-13T07:27:08.920Z,95371.19
2023-04-13T07:30:08.950Z,95369.34
2023-04-13T07:33:05.847Z,95353.69
2023-04-13T07:36:02.876Z,95362.25
2023-04-13T07:39:01.500Z,95348.84
2023-04-13T07:41:58.947Z,95349.50
2023-04-13T07:44:56.834Z,95353.34
2023-04-13T07:47:54.688Z,95342.88
2023-04-13T07:50:52.748Z,95341.88
2023-04-13T07:53:52.259Z,95341.53
2023-04-13T07:56:49.133Z,95349.56
2023-04-13T07:59:46.313Z,95349.84
2023-04-13T08:02:43.444Z,95348.41
2023-04-13T08:05:40.508Z,95353.78
2023-04-13T08:08:37.468Z,95355.88
2023-04-13T08:11:34.480Z,95356.50
2023-04-13T08:14:31.314Z,95351.66
2023-04-13T08:17:28.174Z,95364.03
2023-04-13T08:20:25.426Z,95367.59
2023-04-13T08:23:23.249Z,95366.13
2023-04-13T08:26:21.808Z,95387.06
2023-04-13T08:29:19.072Z,95383.47
2023-04-13T08:32:16.269Z,95395.78
2023-04-13T08:35:13.740Z,95395.84
2023-04-13T08:38:10.597Z,95391.56
2023-04-13T08:41:09.804Z,95395.19
2023-04-13T08:44:08.437Z,95395.97
2023-04-13T08:47:05.406Z,95398.75
2023-04-13T08:50:03.014Z,95403.34
2023-04-13T08:53:03.358Z,95391.84
2023-04-13T08:56:01.921Z,95409.56
2023-04-13T08:59:09.124Z,95398.75
2023-04-13T09:02:07.506Z,95394.28
2023-04-13T09:05:15.969Z,95408.09
2023-04-13T09:08:14.401Z,95398.34
2023-04-13T09:11:11.257Z,95401.00
2023-04-13T09:14:10.070Z,95403.25
2023-04-13T09:17:07.572Z,95397.44
2023-04-13T09:20:23.284Z,95398.88
2023-04-13T09:23:20.818Z,95395.16
2023-04-13T09:26:17.635Z,95397.09
2023-04-13T09:29:20.074Z,95391.06
2023-04-13T09:32:25.099Z,95393.25
2023-04-13T09:35:22.494Z,95390.34
2023-04-13T09:38:19.447Z,95383.63
2023-04-13T09:41:16.450Z,95389.66
2023-04-13T09:44:24.264Z,95397.66
2023-04-13T09:47:21.465Z,95388.06
2023-04-13T09:50:23.884Z,95384.94
2023-04-13T09:53:20.756Z,95379.00
2023-04-13T09:56:18.457Z,95390.28
2023-04-13T09:59:16.123Z,95384.16
2023-04-13T10:02:15.677Z,95390.41
2023-04-13T10:05:12.651Z,95404.03
2023-04-13T10:08:10.431Z,95404.28
2023-04-13T10:11:15.267Z,95415.81
2023-04-13T10:14:19.811Z,95431.91
2023-04-13T10:17:43.681Z,95422.94
2023-04-13T10:20:41.307Z,95411.03
2023-04-13T10:23:39.059Z,95395.53
2023-04-13T10:26:37.300Z,95400.41
2023-04-13T10:29:35.166Z,95403.47
2023-04-13T10:32:32.116Z,95414.91
2023-04-13T10:35:29.230Z,95405.38
2023-04-13T10:38:27.569Z,95404.59
2023-04-13T10:41:26.232Z,95409.91
2023-04-13T10:44:23.081Z,95419.47
2023-04-13T10:47:22.209Z,95417.28
2023-04-13T10:50:27.652Z,95422.00
2023-04-13T10:53:26.723Z,95426.38
2023-04-13T10:56:23.965Z,95432.47
2023-04-13T10:59:20.779Z,95434.38
2023-04-13T11:02:18.642Z,95430.63
2023-04-13T11:05:19.434Z,95431.09
2023-04-13T11:08:21.207Z,95435.47
2023-04-13T11:11:25.523Z,95431.72
2023-04-13T11:14:22.852Z,95432.66
2023-04-13T11:17:21.244Z,95434.69
2023-04-13T11:20:18.254Z,95434.53
2023-04-13T11:23:16.079Z,95436.41
2023-04-13T11:26:14.629Z,95433.75
2023-04-13T11:29:19.085Z,95438.91
2023-04-13T11:32:19.607Z,95443.00
2023-04-13T11:35:18.370Z,95439.69
2023-04-13T11:38:18.524Z,95428.31
2023-04-13T11:41:17.030Z,95433.41
2023-04-13T11:44:14.860Z,95424.13
2023-04-13T11:47:15.229Z,95427.63
2023-04-13T11:50:15.475Z,95427.47
2023-04-13T11:53:13.793Z,95440.97
2023-04-13T11:56:10.904Z,95424.56
2023-04-13T11:59:08.605Z,95425.06
2023-04-13T12:02:12.177Z,95416.97
2023-04-13T12:05:28.895Z,95414.38
2023-04-13T12:08:26.996Z,95416.88
2023-04-13T12:11:41.320Z,95419.03
2023-04-13T12:14:54.602Z,95432.66
2023-04-13T12:18:02.595Z,95428.66
2023-04-13T12:21:06.613Z,95442.31
2023-04-13T12:24:06.772Z,95444.03
2023-04-13T12:30:04.759Z,95443.78
2023-04-13T12:33:01.655Z,95452.09
2023-04-13T12:35:58.545Z,95460.03
2023-04-13T12:38:55.420Z,95457.75
2023-04-13T12:41:52.271Z,95453.34
2023-04-13T12:44:49.102Z,95439.66
2023-04-13T12:47:45.906Z,95439.69
2023-04-13T12:50:42.853Z,95434.75
2023-04-13T12:53:40.393Z,95431.31
2023-04-13T12:56:37.661Z,95423.81
2023-04-13T12:59:34.576Z,95428.44
2023-04-13T13:02:32.773Z,95427.63
2023-04-13T13:05:29.688Z,95423.34
2023-04-13T13:08:27.082Z,95438.47
2023-04-13T13:11:24.025Z,95439.19
2023-04-13T13:14:20.919Z,95441.88
2023-04-13T13:17:17.821Z,95450.88
2023-04-13T13:20:15.326Z,95443.16
2023-04-13T13:23:12.776Z,95442.81
2023-04-13T13:29:09.608Z,95442.91
2023-04-13T13:32:06.976Z,95451.19
2023-04-13T13:35:06.111Z,95444.59
2023-04-13T13:38:03.218Z,95445.41
2023-04-13T13:41:00.361Z,95442.22
2023-04-13T13:43:57.180Z,95450.50
2023-04-13T13:46:53.986Z,95447.75
2023-04-13T13:49:50.858Z,95442.81
2023-04-13T13:53:01.447Z,95455.28
2023-04-13T13:56:01.945Z,95458.75
2023-04-13T13:58:59.393Z,95454.31
2023-04-13T14:01:56.666Z,95439.69
2023-04-13T14:04:53.672Z,95443.06
2023-04-13T14:07:51.320Z,95435.94
2023-04-13T14:10:49.862Z,95439.19
2023-04-13T14:13:47.008Z,95443.06
2023-04-13T14:16:43.922Z,95440.44
2023-04-13T14:19:40.803Z,95445.59
2023-04-13T14:22:39.426Z,95449.91
2023-04-13T14:25:36.679Z,95448.31
2023-04-13T14:28:33.899Z,95451.53
2023-04-13T14:31:30.809Z,95454.81
2023-04-13T14:34:27.801Z,95460.19
2023-04-13T14:37:24.948Z,95460.06
2023-04-13T14:40:23.418Z,95456.78
2023-04-13T14:43:20.263Z,95460.94
2023-04-13T14:46:17.247Z,95459.63
2023-04-13T14:49:16.588Z,95459.19
2023-04-13T14:52:15.113Z,95469.22
2023-04-13T14:55:13.771Z,95464.44
2023-04-13T14:58:11.151Z,95477.00
2023-04-13T15:01:19.114Z,95476.28
2023-04-13T15:04:16.964Z,95483.44
2023-04-13T15:07:14.140Z,95476.44
2023-04-13T15:10:11.187Z,95479.13
2023-04-13T15:13:08.243Z,95482.66
2023-04-13T15:16:07.623Z,95485.16
2023-04-13T15:19:04.839Z,95486.97
2023-04-13T15:22:02.204Z,95490.91
2023-04-13T15:25:00.796Z,95494.28
2023-04-13T15:27:58.749Z,95487.00
2023-04-13T15:30:55.579Z,95492.16
2023-04-13T15:33:52.388Z,95490.78
2023-04-13T15:36:49.174Z,95488.41
2023-04-13T15:39:46.038Z,95494.63
2023-04-13T15:42:42.841Z,95492.16
2023-04-13T15:45:39.771Z,95487.97
2023-04-13T15:48:36.710Z,95496.13
2023-04-13T15:51:33.541Z,95503.81
2023-04-13T15:54:30.498Z,95500.38
2023-04-13T15:57:27.570Z,95502.34
2023-04-13T16:00:25.871Z,95503.00
2023-04-13T16:03:22.891Z,95501.44
2023-04-13T16:06:19.818Z,95515.69
2023-04-13T16:09:16.631Z,95509.25
2023-04-13T16:12:13.860Z,95513.06
2023-04-13T16:15:12.041Z,95522.03
2023-04-13T16:18:08.901Z,95518.03
2023-04-13T16:21:05.937Z,95522.94
2023-04-13T16:24:02.786Z,95534.25
2023-04-13T16:27:00.720Z,95525.19
2023-04-13T16:29:59.940Z,95528.50
2023-04-13T16:32:56.990Z,95527.56
2023-04-13T16:35:53.966Z,95523.47
2023-04-13T16:38:51.411Z,95534.63
2023-04-13T16:41:48.259Z,95532.59
2023-04-13T16:44:45.339Z,95526.44
2023-04-13T16:47:42.813Z,95526.94
2023-04-13T16:50:40.191Z,95526.47
2023-04-13T16:53:37.242Z,95526.78
2023-04-13T16:56:34.101Z,95539.34
2023-04-13T16:59:31.290Z,95538.22
2023-04-13T17:02:31.456Z,95548.72
2023-04-13T17:05:28.615Z,95556.13
2023-04-13T17:08:25.694Z,95570.19
2023-04-13T17:11:23.276Z,95581.47
2023-04-13T17:14:20.441Z,95582.31
2023-04-13T17:17:17.300Z,95590.75
2023-04-13T17:20:16.432Z,95603.69
2023-04-13T17:23:13.880Z,95607.03
2023-04-13T17:26:11.009Z,95619.16
2023-04-13T17:29:08.296Z,95623.94
2023-04-13T17:32:06.122Z,95627.44
2023-04-13T17:35:03.247Z,95645.53
2023-04-13T17:38:00.471Z,95656.38
2023-04-13T17:40:57.253Z,95651.81
2023-04-13T17:43:54.123Z,95662.44
2023-04-13T17:46:52.719Z,95674.91
2023-04-13T17:49:49.556Z,95676.75
2023-04-13T17:52:46.444Z,95680.69
2023-04-13T17:55:43.283Z,95688.97
2023-04-13T17:58:40.167Z,95687.84
2023-04-13T18:01:37.070Z,95697.81
2023-04-13T18:04:34.111Z,95692.88
2023-04-13T18:07:31.095Z,95694.28
2023-04-13T18:10:27.982Z,95698.78
2023-04-13T18:13:27.273Z,95703.09
2023-04-13T18:16:25.418Z,95701.47
2023-04-13T18:19:22.320Z,95695.44
2023-04-13T18:22:19.225Z,95702.22
2023-04-13T18:25:16.893Z,95697.00
2023-04-13T18:28:13.728Z,95695.50
2023-04-13T18:31:10.613Z,95695.72
2023-04-13T18:34:10.391Z,95701.91
2023-04-13T18:37:07.677Z,95699.19
2023-04-13T18:40:05.974Z,95697.00
2023-04-13T18:43:03.153Z,95699.00
2023-04-13T18:46:01.094Z,95707.66
2023-04-13T18:48:58.016Z,95700.38
2023-04-13T18:51:54.878Z,95705.97
2023-04-13T18:54:54.902Z,95702.31
2023-04-13T18:57:52.157Z,95711.06
2023-04-13T19:00:49.367Z,95705.69
2023-04-13T19:03:46.948Z,95711.88
2023-04-13T19:06:44.211Z,95710.88
2023-04-13T19:09:41.139Z,95714.47
2023-04-13T19:12:38.026Z,95712.53
2023-04-13T19:15:35.717Z,95703.78
2023-04-13T19:18:34.296Z,95697.56
2023-04-13T19:21:31.175Z,95710.72
2023-04-13T19:24:28.179Z,95696.47
2023-04-13T19:27:27.107Z,95708.19
2023-04-13T19:30:24.500Z,95703.91
2023-04-13T19:33:24.504Z,95693.09
2023-04-13T19:36:21.797Z,95697.75
2023-04-13T19:39:19.659Z,95700.78
2023-04-13T19:42:16.850Z,95701.00
2023-04-13T19:45:14.882Z,95710.47
2023-04-13T19:48:12.224Z,95709.16
2023-04-13T19:51:09.157Z,95712.00
2023-04-13T19:54:06.630Z,95713.38
2023-04-13T19:57:03.509Z,95715.00
2023-04-13T20:00:00.450Z,95720.19
2023-04-13T20:03:02.955Z,95721.03
2023-04-13T20:06:00.181Z,95727.19
2023-04-13T20:09:09.332Z,95727.09
2023-04-13T20:12:06.399Z,95720.56
2023-04-13T20:15:04.313Z,95720.06
2023-04-13T20:18:07.194Z,95714.88
2023-04-13T20:21:06.401Z,95717.53
2023-04-13T20:24:03.725Z,95719.81
2023-04-13T20:27:00.590Z,95714.56
2023-04-13T20:29:57.634Z,95718.38
2023-04-13T20:32:54.556Z,95710.03
2023-04-13T20:35:53.616Z,95716.22
2023-04-13T20:38:52.253Z,95707.47
2023-04-13T20:41:54.417Z,95708.69
2023-04-13T20:44:57.876Z,95715.72
2023-04-13T20:47:56.096Z,95715.31
2023-04-13T20:50:53.782Z,95706.81
2023-04-13T20:53:51.104Z,95703.19
2023-04-13T20:56:49.146Z,95706.41
2023-04-13T20:59:46.711Z,95721.91
2023-04-13T21:02:43.926Z,95712.91
2023-04-13T21:05:40.959Z,95715.31
2023-04-13T21:08:37.945Z,95714.91
2023-04-13T21:11:34.958Z,95713.94
2023-04-13T21:14:32.204Z,95717.09
2023-04-13T21:17:31.274Z,95732.66
2023-04-13T21:20:28.322Z,95724.09
2023-04-13T21:23:25.312Z,95723.22
2023-04-13T21:26:22.497Z,95729.38
2023-04-13T21:29:20.088Z,95727.00
2023-04-13T21:32:17.329Z,95732.06
2023-04-13T21:35:17.242Z,95729.13
2023-04-13T21:38:14.105Z,95724.53
2023-04-13T21:41:18.234Z,95726.34
2023-04-13T21:44:28.734Z,95719.50
2023-04-13T21:47:26.489Z,95725.16
2023-04-13T21:50:23.728Z,95722.72
2023-04-13T21:53:20.747Z,95716.88
2023-04-13T21:56:17.574Z,95705.81
2023-04-13T21:59:14.577Z,95690.31
2023-04-13T22:02:11.486Z,95691.78
2023-04-13T22:05:11.112Z,95690.00
2023-04-13T22:08:08.154Z,95693.84
2023-04-13T22:11:05.528Z,95691.41
2023-04-13T22:14:02.459Z,95690.50
2023-04-13T22:16:59.508Z,95690.91
2023-04-13T22:19:56.377Z,95687.97
2023-04-13T22:22:53.172Z,95691.13
2023-04-13T22:26:01.730Z,95704.22
2023-04-13T22:28:58.988Z,95710.75
2023-04-13T22:31:56.389Z,95718.91
2023-04-13T22:34:53.244Z,95722.44
2023-04-13T22:37:50.216Z,95726.72
2023-04-13T22:40:47.044Z,95727.84
2023-04-13T22:43:44.003Z,95722.34
2023-04-13T22:46:40.911Z,95718.66
2023-04-13T22:49:37.767Z,95723.97
2023-04-13T22:52:34.591Z,95726.91
2023-04-13T22:55:31.577Z,95726.34
2023-04-13T22:58:28.786Z,95726.91
2023-04-13T23:01:25.707Z,95737.66
2023-04-13T23:04:22.742Z,95733.72
2023-04-13T23:07:19.790Z,95739.31
2023-04-13T23:10:17.135Z,95734.03
2023-04-13T23:13:14.166Z,95739.63
2023-04-13T23:16:11.589Z,95740.91
2023-04-13T23:19:08.488Z,95733.06
2023-04-13T23:22:05.874Z,95729.38
2023-04-13T23:25:02.795Z,95726.19
2023-04-13T23:27:59.609Z,95714.31
2023-04-13T23:31:07.212Z,95718.03
2023-04-13T23:34:04.035Z,95719.06
2023-04-13T23:37:01.080Z,95718.03
2023-04-13T23:39:58.146Z,95715.63
2023-04-13T23:42:54.997Z,95714.53
2023-04-13T23:45:52.739Z,95715.75
2023-04-13T23:48:49.733Z,95715.03
2023-04-13T23:51:46.896Z,95710.84
2023-04-13T23:54:43.745Z,95715.38
2023-04-13T23:57:40.790Z,95714.81
